sensor_id;sensor_type;location;lat;lon;timestamp;P1;durP1;ratioP1;P2;durP2;ratioP2
32032;SDS011;31720;52.638;9.216;2023-04-15T00:01:58;10.25;;;3.85;;
32032;SDS011;31720;52.638;9.216;2023-04-15T00:04:59;7.15;;;3.75;;
32032;SDS011;31720;52.638;9.216;2023-04-15T00:08:02;8.63;;;3.90;;
32032;SDS011;31720;52.638;9.216;2023-04-15T00:11:04;5.72;;;3.10;;
32032;SDS011;31720;52.638;9.216;2023-04-15T00:14:05;5.70;;;2.92;;
32032;SDS011;31720;52.638;9.216;2023-04-15T00:17:07;6.47;;;3.53;;
32032;SDS011;31720;52.638;9.216;2023-04-15T00:20:08;8.30;;;3.67;;
32032;SDS011;31720;52.638;9.216;2023-04-15T00:23:12;8.23;;;3.40;;
32032;SDS011;31720;52.638;9.216;2023-04-15T00:26:13;4.40;;;2.90;;
32032;SDS011;31720;52.638;9.216;2023-04-15T00:29:14;10.38;;;3.70;;
32032;SDS011;31720;52.638;9.216;2023-04-15T00:32:16;5.35;;;3.28;;
32032;SDS011;31720;52.638;9.216;2023-04-15T00:35:17;6.72;;;3.42;;
32032;SDS011;31720;52.638;9.216;2023-04-15T00:38:20;7.60;;;3.50;;
32032;SDS011;31720;52.638;9.216;2023-04-15T00:41:21;6.32;;;3.47;;
32032;SDS011;31720;52.638;9.216;2023-04-15T00:44:23;6.45;;;4.05;;
32032;SDS011;31720;52.638;9.216;2023-04-15T00:47:24;6.85;;;3.38;;
32032;SDS011;31720;52.638;9.216;2023-04-15T00:50:29;9.25;;;3.88;;
32032;SDS011;31720;52.638;9.216;2023-04-15T00:53:32;8.98;;;4.50;;
32032;SDS011;31720;52.638;9.216;2023-04-15T00:56:34;7.70;;;4.03;;
32032;SDS011;31720;52.638;9.216;2023-04-15T00:59:37;6.80;;;3.55;;
32032;SDS011;31720;52.638;9.216;2023-04-15T01:02:38;7.00;;;3.67;;
32032;SDS011;31720;52.638;9.216;2023-04-15T01:05:39;6.65;;;3.63;;
32032;SDS011;31720;52.638;9.216;2023-04-15T01:08:43;11.30;;;3.97;;
32032;SDS011;31720;52.638;9.216;2023-04-15T01:11:45;8.48;;;3.45;;
32032;SDS011;31720;52.638;9.216;2023-04-15T01:14:46;7.28;;;3.88;;
32032;SDS011;31720;52.638;9.216;2023-04-15T01:17:48;7.10;;;3.55;;
32032;SDS011;31720;52.638;9.216;2023-04-15T01:20:50;10.52;;;4.38;;
32032;SDS011;31720;52.638;9.216;2023-04-15T01:23:52;12.95;;;4.82;;
32032;SDS011;31720;52.638;9.216;2023-04-15T01:26:58;10.98;;;4.72;;
32032;SDS011;31720;52.638;9.216;2023-04-15T01:30:00;7.55;;;4.05;;
32032;SDS011;31720;52.638;9.216;2023-04-15T01:33:02;7.60;;;3.80;;
32032;SDS011;31720;52.638;9.216;2023-04-15T01:36:04;8.35;;;3.78;;
32032;SDS011;31720;52.638;9.216;2023-04-15T01:39:07;9.45;;;4.65;;
32032;SDS011;31720;52.638;9.216;2023-04-15T01:42:10;11.77;;;4.97;;
32032;SDS011;31720;52.638;9.216;2023-04-15T01:45:11;10.90;;;4.57;;
32032;SDS011;31720;52.638;9.216;2023-04-15T01:48:13;9.30;;;4.75;;
32032;SDS011;31720;52.638;9.216;2023-04-15T01:51:15;12.52;;;4.93;;
32032;SDS011;31720;52.638;9.216;2023-04-15T01:54:17;9.45;;;4.82;;
32032;SDS011;31720;52.638;9.216;2023-04-15T01:57:19;9.77;;;4.53;;
32032;SDS011;31720;52.638;9.216;2023-04-15T02:00:21;12.25;;;5.15;;
32032;SDS011;31720;52.638;9.216;2023-04-15T02:03:23;15.55;;;4.68;;
32032;SDS011;31720;52.638;9.216;2023-04-15T02:06:24;10.95;;;5.07;;
32032;SDS011;31720;52.638;9.216;2023-04-15T02:09:27;10.40;;;4.55;;
32032;SDS011;31720;52.638;9.216;2023-04-15T02:12:30;11.85;;;5.57;;
32032;SDS011;31720;52.638;9.216;2023-04-15T02:15:31;10.70;;;5.55;;
32032;SDS011;31720;52.638;9.216;2023-04-15T02:18:33;13.95;;;6.72;;
32032;SDS011;31720;52.638;9.216;2023-04-15T02:21:34;14.70;;;6.68;;
32032;SDS011;31720;52.638;9.216;2023-04-15T02:24:36;12.07;;;5.07;;
32032;SDS011;31720;52.638;9.216;2023-04-15T02:27:38;12.30;;;5.93;;
32032;SDS011;31720;52.638;9.216;2023-04-15T02:30:40;11.35;;;5.72;;
32032;SDS011;31720;52.638;9.216;2023-04-15T02:33:41;10.80;;;5.18;;
32032;SDS011;31720;52.638;9.216;2023-04-15T02:36:43;15.30;;;5.53;;
32032;SDS011;31720;52.638;9.216;2023-04-15T02:39:45;16.05;;;7.07;;
32032;SDS011;31720;52.638;9.216;2023-04-15T02:42:48;15.13;;;6.35;;
32032;SDS011;31720;52.638;9.216;2023-04-15T02:45:50;12.15;;;5.97;;
32032;SDS011;31720;52.638;9.216;2023-04-15T02:48:51;13.23;;;5.85;;
32032;SDS011;31720;52.638;9.216;2023-04-15T02:51:53;14.20;;;6.00;;
32032;SDS011;31720;52.638;9.216;2023-04-15T02:54:54;12.15;;;6.20;;
32032;SDS011;31720;52.638;9.216;2023-04-15T02:58:00;16.95;;;6.88;;
32032;SDS011;31720;52.638;9.216;2023-04-15T03:01:02;12.90;;;6.88;;
32032;SDS011;31720;52.638;9.216;2023-04-15T03:04:03;16.75;;;7.10;;
32032;SDS011;31720;52.638;9.216;2023-04-15T03:07:06;13.20;;;6.28;;
32032;SDS011;31720;52.638;9.216;2023-04-15T03:10:08;13.43;;;5.63;;
32032;SDS011;31720;52.638;9.216;2023-04-15T03:13:11;14.32;;;6.05;;
32032;SDS011;31720;52.638;9.216;2023-04-15T03:16:13;13.23;;;6.45;;
32032;SDS011;31720;52.638;9.216;2023-04-15T03:19:15;14.13;;;6.40;;
32032;SDS011;31720;52.638;9.216;2023-04-15T03:22:16;18.52;;;6.30;;
32032;SDS011;31720;52.638;9.216;2023-04-15T03:25:17;13.40;;;5.85;;
32032;SDS011;31720;52.638;9.216;2023-04-15T03:28:20;17.15;;;5.95;;
32032;SDS011;31720;52.638;9.216;2023-04-15T03:31:22;14.63;;;7.05;;
32032;SDS011;31720;52.638;9.216;2023-04-15T03:34:24;15.23;;;7.03;;
32032;SDS011;31720;52.638;9.216;2023-04-15T03:37:25;16.65;;;6.68;;
32032;SDS011;31720;52.638;9.216;2023-04-15T03:40:26;12.55;;;6.25;;
32032;SDS011;31720;52.638;9.216;2023-04-15T03:43:29;13.93;;;7.00;;
32032;SDS011;31720;52.638;9.216;2023-04-15T03:46:31;14.45;;;6.68;;
32032;SDS011;31720;52.638;9.216;2023-04-15T03:49:32;15.88;;;6.15;;
32032;SDS011;31720;52.638;9.216;2023-04-15T03:52:33;15.13;;;6.15;;
32032;SDS011;31720;52.638;9.216;2023-04-15T03:55:35;16.63;;;6.60;;
32032;SDS011;31720;52.638;9.216;2023-04-15T03:58:38;11.52;;;5.88;;
32032;SDS011;31720;52.638;9.216;2023-04-15T04:01:39;13.38;;;6.15;;
32032;SDS011;31720;52.638;9.216;2023-04-15T04:04:40;12.05;;;6.10;;
32032;SDS011;31720;52.638;9.216;2023-04-15T04:07:42;16.20;;;6.20;;
32032;SDS011;31720;52.638;9.216;2023-04-15T04:10:44;13.52;;;6.35;;
32032;SDS011;31720;52.638;9.216;2023-04-15T04:13:46;15.98;;;7.20;;
32032;SDS011;31720;52.638;9.216;2023-04-15T04:16:48;11.80;;;5.80;;
32032;SDS011;31720;52.638;9.216;2023-04-15T04:19:49;13.90;;;5.93;;
32032;SDS011;31720;52.638;9.216;2023-04-15T04:22:51;13.00;;;6.45;;
32032;SDS011;31720;52.638;9.216;2023-04-15T04:25:52;15.13;;;6.22;;
32032;SDS011;31720;52.638;9.216;2023-04-15T04:28:55;14.23;;;6.30;;
32032;SDS011;31720;52.638;9.216;2023-04-15T04:31:56;13.77;;;5.78;;
32032;SDS011;31720;52.638;9.216;2023-04-15T04:34:57;13.43;;;5.75;;
32032;SDS011;31720;52.638;9.216;2023-04-15T04:37:59;11.23;;;5.45;;
32032;SDS011;31720;52.638;9.216;2023-04-15T04:41:00;11.73;;;5.22;;
32032;SDS011;31720;52.638;9.216;2023-04-15T04:44:03;18.25;;;6.43;;
32032;SDS011;31720;52.638;9.216;2023-04-15T04:47:05;14.73;;;5.30;;
32032;SDS011;31720;52.638;9.216;2023-04-15T04:50:07;9.93;;;4.70;;
32032;SDS011;31720;52.638;9.216;2023-04-15T04:53:09;14.40;;;5.68;;
32032;SDS011;31720;52.638;9.216;2023-04-15T04:56:11;14.30;;;5.38;;
32032;SDS011;31720;52.638;9.216;2023-04-15T04:59:13;15.00;;;6.55;;
32032;SDS011;31720;52.638;9.216;2023-04-15T05:02:15;10.15;;;5.25;;
32032;SDS011;31720;52.638;9.216;2023-04-15T05:05:16;13.65;;;5.57;;
32032;SDS011;31720;52.638;9.216;2023-04-15T05:08:17;15.30;;;5.20;;
32032;SDS011;31720;52.638;9.216;2023-04-15T05:11:19;17.42;;;5.53;;
32032;SDS011;31720;52.638;9.216;2023-04-15T05:14:21;8.40;;;4.45;;
32032;SDS011;31720;52.638;9.216;2023-04-15T05:17:23;16.35;;;6.03;;
32032;SDS011;31720;52.638;9.216;2023-04-15T05:20:24;12.95;;;4.68;;
32032;SDS011;31720;52.638;9.216;2023-04-15T05:23:26;12.32;;;5.63;;
32032;SDS011;31720;52.638;9.216;2023-04-15T05:26:27;12.35;;;5.20;;
32032;SDS011;31720;52.638;9.216;2023-04-15T05:29:30;11.95;;;5.70;;
32032;SDS011;31720;52.638;9.216;2023-04-15T05:32:31;12.50;;;6.00;;
32032;SDS011;31720;52.638;9.216;2023-04-15T05:35:32;11.75;;;5.88;;
32032;SDS011;31720;52.638;9.216;2023-04-15T05:38:34;13.60;;;6.38;;
32032;SDS011;31720;52.638;9.216;2023-04-15T05:41:36;13.35;;;6.03;;
32032;SDS011;31720;52.638;9.216;2023-04-15T05:44:39;12.15;;;5.68;;
32032;SDS011;31720;52.638;9.216;2023-04-15T05:47:40;12.68;;;6.55;;
32032;SDS011;31720;52.638;9.216;2023-04-15T05:50:42;15.93;;;6.70;;
32032;SDS011;31720;52.638;9.216;2023-04-15T05:53:43;13.90;;;6.05;;
32032;SDS011;31720;52.638;9.216;2023-04-15T05:56:45;13.82;;;5.82;;
32032;SDS011;31720;52.638;9.216;2023-04-15T05:59:47;15.07;;;6.68;;
32032;SDS011;31720;52.638;9.216;2023-04-15T06:02:51;15.60;;;6.50;;
32032;SDS011;31720;52.638;9.216;2023-04-15T06:05:52;15.98;;;8.07;;
32032;SDS011;31720;52.638;9.216;2023-04-15T06:08:54;14.80;;;6.72;;
32032;SDS011;31720;52.638;9.216;2023-04-15T06:11:56;14.98;;;6.82;;
32032;SDS011;31720;52.638;9.216;2023-04-15T06:15:00;12.63;;;6.38;;
32032;SDS011;31720;52.638;9.216;2023-04-15T06:18:01;16.85;;;6.40;;
32032;SDS011;31720;52.638;9.216;2023-04-15T06:21:03;13.07;;;6.28;;
32032;SDS011;31720;52.638;9.216;2023-04-15T06:24:05;10.75;;;5.65;;
32032;SDS011;31720;52.638;9.216;2023-04-15T06:27:06;13.77;;;5.82;;
32032;SDS011;31720;52.638;9.216;2023-04-15T06:30:09;13.27;;;6.70;;
32032;SDS011;31720;52.638;9.216;2023-04-15T06:33:11;11.50;;;5.32;;
32032;SDS011;31720;52.638;9.216;2023-04-15T06:36:13;11.27;;;5.60;;
32032;SDS011;31720;52.638;9.216;2023-04-15T06:39:14;10.40;;;5.15;;
32032;SDS011;31720;52.638;9.216;2023-04-15T06:42:16;11.43;;;4.85;;
32032;SDS011;31720;52.638;9.216;2023-04-15T06:45:18;8.02;;;4.35;;
32032;SDS011;31720;52.638;9.216;2023-04-15T06:48:20;10.70;;;5.45;;
32032;SDS011;31720;52.638;9.216;2023-04-15T06:51:22;11.73;;;4.38;;
32032;SDS011;31720;52.638;9.216;2023-04-15T06:54:23;8.23;;;4.45;;
32032;SDS011;31720;52.638;9.216;2023-04-15T06:57:25;13.10;;;4.68;;
32032;SDS011;31720;52.638;9.216;2023-04-15T07:00:29;9.95;;;4.85;;
32032;SDS011;31720;52.638;9.216;2023-04-15T07:03:32;9.90;;;4.05;;
32032;SDS011;31720;52.638;9.216;2023-04-15T07:06:34;12.00;;;5.15;;
32032;SDS011;31720;52.638;9.216;2023-04-15T07:09:35;10.05;;;4.93;;
32032;SDS011;31720;52.638;9.216;2023-04-15T07:12:37;11.80;;;4.65;;
32032;SDS011;31720;52.638;9.216;2023-04-15T07:15:40;12.05;;;5.65;;
32032;SDS011;31720;52.638;9.216;2023-04-15T07:18:41;10.07;;;4.88;;
32032;SDS011;31720;52.638;9.216;2023-04-15T07:21:42;9.60;;;4.68;;
32032;SDS011;31720;52.638;9.216;2023-04-15T07:24:44;10.85;;;4.93;;
32032;SDS011;31720;52.638;9.216;2023-04-15T07:27:46;11.98;;;4.70;;
32032;SDS011;31720;52.638;9.216;2023-04-15T07:30:48;10.07;;;5.05;;
32032;SDS011;31720;52.638;9.216;2023-04-15T07:33:50;9.38;;;4.47;;
32032;SDS011;31720;52.638;9.216;2023-04-15T07:36:52;9.18;;;4.85;;
32032;SDS011;31720;52.638;9.216;2023-04-15T07:39:53;11.30;;;4.88;;
32032;SDS011;31720;52.638;9.216;2023-04-15T07:42:55;11.30;;;5.15;;
32032;SDS011;31720;52.638;9.216;2023-04-15T07:45:58;13.52;;;4.75;;
32032;SDS011;31720;52.638;9.216;2023-04-15T07:49:00;11.40;;;4.20;;
32032;SDS011;31720;52.638;9.216;2023-04-15T07:52:01;8.85;;;4.35;;
32032;SDS011;31720;52.638;9.216;2023-04-15T07:55:03;9.27;;;4.07;;
32032;SDS011;31720;52.638;9.216;2023-04-15T07:58:06;10.93;;;5.25;;
32032;SDS011;31720;52.638;9.216;2023-04-15T08:01:08;8.07;;;4.25;;
32032;SDS011;31720;52.638;9.216;2023-04-15T08:04:10;13.75;;;4.88;;
32032;SDS011;31720;52.638;9.216;2023-04-15T08:07:12;10.65;;;4.05;;
32032;SDS011;31720;52.638;9.216;2023-04-15T08:10:13;7.03;;;3.42;;
32032;SDS011;31720;52.638;9.216;2023-04-15T08:13:15;9.13;;;3.53;;
32032;SDS011;31720;52.638;9.216;2023-04-15T08:16:18;10.20;;;3.60;;
32032;SDS011;31720;52.638;9.216;2023-04-15T08:19:20;5.78;;;2.88;;
32032;SDS011;31720;52.638;9.216;2023-04-15T08:22:22;8.15;;;3.85;;
32032;SDS011;31720;52.638;9.216;2023-04-15T08:25:23;7.60;;;3.58;;
32032;SDS011;31720;52.638;9.216;2023-04-15T08:28:24;6.93;;;3.28;;
32032;SDS011;31720;52.638;9.216;2023-04-15T08:31:27;6.68;;;3.90;;
32032;SDS011;31720;52.638;9.216;2023-04-15T08:34:29;5.13;;;2.97;;
32032;SDS011;31720;52.638;9.216;2023-04-15T08:37:31;6.75;;;4.00;;
32032;SDS011;31720;52.638;9.216;2023-04-15T08:40:34;5.30;;;2.60;;
32032;SDS011;31720;52.638;9.216;2023-04-15T08:43:42;9.50;;;3.33;;
32032;SDS011;31720;52.638;9.216;2023-04-15T08:46:51;6.20;;;2.95;;
32032;SDS011;31720;52.638;9.216;2023-04-15T08:49:54;5.32;;;2.92;;
32032;SDS011;31720;52.638;9.216;2023-04-15T08:52:58;5.47;;;3.17;;
32032;SDS011;31720;52.638;9.216;2023-04-15T08:56:00;7.28;;;3.25;;
32032;SDS011;31720;52.638;9.216;2023-04-15T08:59:04;9.27;;;3.50;;
32032;SDS011;31720;52.638;9.216;2023-04-15T09:02:08;6.53;;;3.38;;
32032;SDS011;31720;52.638;9.216;2023-04-15T09:05:09;5.15;;;3.28;;
32032;SDS011;31720;52.638;9.216;2023-04-15T09:08:11;4.80;;;2.60;;
32032;SDS011;31720;52.638;9.216;2023-04-15T09:11:12;8.27;;;3.58;;
32032;SDS011;31720;52.638;9.216;2023-04-15T09:14:14;7.03;;;3.40;;
32032;SDS011;31720;52.638;9.216;2023-04-15T09:17:18;6.45;;;3.28;;
32032;SDS011;31720;52.638;9.216;2023-04-15T09:20:20;4.88;;;2.85;;
32032;SDS011;31720;52.638;9.216;2023-04-15T09:23:23;7.03;;;3.25;;
32032;SDS011;31720;52.638;9.216;2023-04-15T09:26:31;7.00;;;3.08;;
32032;SDS011;31720;52.638;9.216;2023-04-15T09:29:33;6.53;;;3.38;;
32032;SDS011;31720;52.638;9.216;2023-04-15T09:32:37;6.30;;;3.40;;
32032;SDS011;31720;52.638;9.216;2023-04-15T09:35:55;6.30;;;3.58;;
32032;SDS011;31720;52.638;9.216;2023-04-15T09:42:04;5.70;;;3.10;;
32032;SDS011;31720;52.638;9.216;2023-04-15T09:45:07;6.63;;;4.00;;
32032;SDS011;31720;52.638;9.216;2023-04-15T09:48:17;8.15;;;3.75;;
32032;SDS011;31720;52.638;9.216;2023-04-15T09:51:31;8.23;;;4.22;;
32032;SDS011;31720;52.638;9.216;2023-04-15T09:54:35;10.55;;;4.05;;
32032;SDS011;31720;52.638;9.216;2023-04-15T09:57:38;7.63;;;3.55;;
32032;SDS011;31720;52.638;9.216;2023-04-15T10:00:40;6.50;;;4.00;;
32032;SDS011;31720;52.638;9.216;2023-04-15T10:03:43;9.93;;;4.90;;
32032;SDS011;31720;52.638;9.216;2023-04-15T10:06:45;14.57;;;6.13;;
32032;SDS011;31720;52.638;9.216;2023-04-15T10:09:47;9.75;;;4.18;;
32032;SDS011;31720;52.638;9.216;2023-04-15T10:12:49;17.73;;;5.60;;
32032;SDS011;31720;52.638;9.216;2023-04-15T10:15:55;8.90;;;4.90;;
32032;SDS011;31720;52.638;9.216;2023-04-15T10:19:00;13.88;;;5.95;;
32032;SDS011;31720;52.638;9.216;2023-04-15T10:22:02;12.52;;;6.10;;
32032;SDS011;31720;52.638;9.216;2023-04-15T10:25:05;15.55;;;7.47;;
32032;SDS011;31720;52.638;9.216;2023-04-15T10:28:07;11.05;;;5.82;;
32032;SDS011;31720;52.638;9.216;2023-04-15T10:31:09;10.30;;;5.85;;
32032;SDS011;31720;52.638;9.216;2023-04-15T10:34:13;12.38;;;5.93;;
32032;SDS011;31720;52.638;9.216;2023-04-15T10:37:19;11.25;;;5.75;;
32032;SDS011;31720;52.638;9.216;2023-04-15T10:40:25;11.48;;;6.00;;
32032;SDS011;31720;52.638;9.216;2023-04-15T10:43:27;11.27;;;5.65;;
32032;SDS011;31720;52.638;9.216;2023-04-15T10:46:34;14.73;;;6.85;;
32032;SDS011;31720;52.638;9.216;2023-04-15T10:49:45;12.98;;;7.18;;
32032;SDS011;31720;52.638;9.216;2023-04-15T10:52:49;20.42;;;7.72;;
32032;SDS011;31720;52.638;9.216;2023-04-15T10:55:51;16.25;;;6.78;;
32032;SDS011;31720;52.638;9.216;2023-04-15T10:58:53;14.20;;;6.80;;
32032;SDS011;31720;52.638;9.216;2023-04-15T11:01:55;17.02;;;7.82;;
32032;SDS011;31720;52.638;9.216;2023-04-15T11:05:01;15.23;;;7.32;;
32032;SDS011;31720;52.638;9.216;2023-04-15T11:08:03;16.80;;;7.72;;
32032;SDS011;31720;52.638;9.216;2023-04-15T11:11:05;18.27;;;7.53;;
32032;SDS011;31720;52.638;9.216;2023-04-15T11:14:06;19.42;;;8.27;;
32032;SDS011;31720;52.638;9.216;2023-04-15T11:17:23;15.50;;;7.80;;
32032;SDS011;31720;52.638;9.216;2023-04-15T11:20:29;20.98;;;8.80;;
32032;SDS011;31720;52.638;9.216;2023-04-15T11:23:33;18.75;;;8.02;;
32032;SDS011;31720;52.638;9.216;2023-04-15T11:26:36;22.92;;;8.65;;
32032;SDS011;31720;52.638;9.216;2023-04-15T11:29:37;17.55;;;8.57;;
32032;SDS011;31720;52.638;9.216;2023-04-15T11:32:40;18.77;;;9.75;;
32032;SDS011;31720;52.638;9.216;2023-04-15T11:35:43;18.70;;;8.45;;
32032;SDS011;31720;52.638;9.216;2023-04-15T11:38:45;29.45;;;13.13;;
32032;SDS011;31720;52.638;9.216;2023-04-15T11:41:47;25.50;;;9.82;;
32032;SDS011;31720;52.638;9.216;2023-04-15T11:44:48;20.88;;;9.27;;
32032;SDS011;31720;52.638;9.216;2023-04-15T11:47:50;19.98;;;8.85;;
32032;SDS011;31720;52.638;9.216;2023-04-15T11:50:53;22.50;;;9.65;;
32032;SDS011;31720;52.638;9.216;2023-04-15T11:53:56;27.20;;;9.93;;
32032;SDS011;31720;52.638;9.216;2023-04-15T11:56:57;29.48;;;11.98;;
32032;SDS011;31720;52.638;9.216;2023-04-15T12:00:00;25.05;;;10.45;;
32032;SDS011;31720;52.638;9.216;2023-04-15T12:03:16;32.65;;;11.68;;
32032;SDS011;31720;52.638;9.216;2023-04-15T12:06:21;22.45;;;9.48;;
32032;SDS011;31720;52.638;9.216;2023-04-15T12:09:23;22.33;;;10.13;;
32032;SDS011;31720;52.638;9.216;2023-04-15T12:12:25;31.13;;;10.30;;
32032;SDS011;31720;52.638;9.216;2023-04-15T12:15:27;25.92;;;10.05;;
32032;SDS011;31720;52.638;9.216;2023-04-15T12:18:28;24.58;;;8.50;;
32032;SDS011;31720;52.638;9.216;2023-04-15T12:21:33;31.85;;;10.55;;
32032;SDS011;31720;52.638;9.216;2023-04-15T12:24:37;27.40;;;11.20;;
32032;SDS011;31720;52.638;9.216;2023-04-15T12:27:39;25.63;;;10.18;;
32032;SDS011;31720;52.638;9.216;2023-04-15T12:30:47;29.65;;;11.27;;
32032;SDS011;31720;52.638;9.216;2023-04-15T12:33:49;32.72;;;14.65;;
32032;SDS011;31720;52.638;9.216;2023-04-15T12:36:52;36.15;;;12.98;;
32032;SDS011;31720;52.638;9.216;2023-04-15T12:39:53;45.63;;;17.05;;
32032;SDS011;31720;52.638;9.216;2023-04-15T12:42:54;43.70;;;15.80;;
32032;SDS011;31720;52.638;9.216;2023-04-15T12:45:56;31.02;;;13.15;;
32032;SDS011;31720;52.638;9.216;2023-04-15T12:48:57;29.67;;;11.50;;
32032;SDS011;31720;52.638;9.216;2023-04-15T12:52:00;27.55;;;11.43;;
32032;SDS011;31720;52.638;9.216;2023-04-15T12:55:02;30.33;;;11.85;;
32032;SDS011;31720;52.638;9.216;2023-04-15T12:58:04;31.92;;;12.07;;
32032;SDS011;31720;52.638;9.216;2023-04-15T13:01:06;32.70;;;11.95;;
32032;SDS011;31720;52.638;9.216;2023-04-15T13:04:07;39.92;;;13.52;;
32032;SDS011;31720;52.638;9.216;2023-04-15T13:07:10;34.38;;;13.45;;
32032;SDS011;31720;52.638;9.216;2023-04-15T13:10:13;39.53;;;14.35;;
32032;SDS011;31720;52.638;9.216;2023-04-15T13:13:14;39.25;;;14.85;;
32032;SDS011;31720;52.638;9.216;2023-04-15T13:16:16;34.50;;;13.45;;
32032;SDS011;31720;52.638;9.216;2023-04-15T13:19:17;31.92;;;13.23;;
32032;SDS011;31720;52.638;9.216;2023-04-15T13:22:20;41.03;;;15.82;;
32032;SDS011;31720;52.638;9.216;2023-04-15T13:25:21;47.80;;;17.98;;
32032;SDS011;31720;52.638;9.216;2023-04-15T13:28:23;41.85;;;16.38;;
32032;SDS011;31720;52.638;9.216;2023-04-15T13:31:24;46.83;;;17.35;;
32032;SDS011;31720;52.638;9.216;2023-04-15T13:34:26;50.47;;;16.13;;
32032;SDS011;31720;52.638;9.216;2023-04-15T13:37:29;46.33;;;16.63;;
32032;SDS011;31720;52.638;9.216;2023-04-15T13:40:30;49.33;;;18.40;;
32032;SDS011;31720;52.638;9.216;2023-04-15T13:43:32;46.50;;;17.77;;
32032;SDS011;31720;52.638;9.216;2023-04-15T13:46:33;42.28;;;16.40;;
32032;SDS011;31720;52.638;9.216;2023-04-15T13:49:35;54.60;;;17.48;;
32032;SDS011;31720;52.638;9.216;2023-04-15T13:52:38;42.65;;;17.23;;
32032;SDS011;31720;52.638;9.216;2023-04-15T13:55:40;51.42;;;17.38;;
32032;SDS011;31720;52.638;9.216;2023-04-15T13:58:41;50.90;;;17.40;;
32032;SDS011;31720;52.638;9.216;2023-04-15T14:01:43;48.83;;;17.73;;
32032;SDS011;31720;52.638;9.216;2023-04-15T14:04:44;45.25;;;16.83;;
32032;SDS011;31720;52.638;9.216;2023-04-15T14:07:47;46.45;;;17.95;;
32032;SDS011;31720;52.638;9.216;2023-04-15T14:10:48;54.63;;;17.67;;
32032;SDS011;31720;52.638;9.216;2023-04-15T14:13:50;44.60;;;16.85;;
32032;SDS011;31720;52.638;9.216;2023-04-15T14:16:51;39.33;;;14.98;;
32032;SDS011;31720;52.638;9.216;2023-04-15T14:19:53;46.03;;;16.05;;
32032;SDS011;31720;52.638;9.216;2023-04-15T14:22:56;39.33;;;16.40;;
32032;SDS011;31720;52.638;9.216;2023-04-15T14:25:57;39.63;;;14.98;;
32032;SDS011;31720;52.638;9.216;2023-04-15T14:28:59;37.28;;;16.00;;
32032;SDS011;31720;52.638;9.216;2023-04-15T14:32:00;39.78;;;15.52;;
32032;SDS011;31720;52.638;9.216;2023-04-15T14:35:01;40.95;;;16.63;;
32032;SDS011;31720;52.638;9.216;2023-04-15T14:38:05;38.35;;;15.95;;
32032;SDS011;31720;52.638;9.216;2023-04-15T14:41:09;43.17;;;17.02;;
32032;SDS011;31720;52.638;9.216;2023-04-15T14:44:11;42.35;;;16.50;;
32032;SDS011;31720;52.638;9.216;2023-04-15T14:47:12;43.22;;;17.50;;
32032;SDS011;31720;52.638;9.216;2023-04-15T14:50:14;43.35;;;16.15;;
32032;SDS011;31720;52.638;9.216;2023-04-15T14:53:16;40.92;;;17.75;;
32032;SDS011;31720;52.638;9.216;2023-04-15T14:56:18;35.58;;;15.55;;
32032;SDS011;31720;52.638;9.216;2023-04-15T14:59:20;38.13;;;16.13;;
32032;SDS011;31720;52.638;9.216;2023-04-15T15:02:21;37.80;;;14.57;;
32032;SDS011;31720;52.638;9.216;2023-04-15T15:05:23;47.00;;;18.05;;
32032;SDS011;31720;52.638;9.216;2023-04-15T15:08:25;34.90;;;16.58;;
32032;SDS011;31720;52.638;9.216;2023-04-15T15:11:27;36.28;;;15.57;;
32032;SDS011;31720;52.638;9.216;2023-04-15T15:14:28;35.40;;;15.25;;
32032;SDS011;31720;52.638;9.216;2023-04-15T15:17:30;36.63;;;15.15;;
32032;SDS011;31720;52.638;9.216;2023-04-15T15:20:31;34.78;;;15.52;;
32032;SDS011;31720;52.638;9.216;2023-04-15T15:23:35;38.10;;;16.70;;
32032;SDS011;31720;52.638;9.216;2023-04-15T15:26:37;34.22;;;16.70;;
32032;SDS011;31720;52.638;9.216;2023-04-15T15:29:39;36.60;;;14.80;;
32032;SDS011;31720;52.638;9.216;2023-04-15T15:32:40;33.53;;;15.15;;
32032;SDS011;31720;52.638;9.216;2023-04-15T15:35:43;32.10;;;14.40;;
32032;SDS011;31720;52.638;9.216;2023-04-15T15:38:45;33.92;;;14.90;;
32032;SDS011;31720;52.638;9.216;2023-04-15T15:41:47;39.92;;;15.18;;
32032;SDS011;31720;52.638;9.216;2023-04-15T15:44:48;35.33;;;15.75;;
32032;SDS011;31720;52.638;9.216;2023-04-15T15:47:51;29.55;;;13.65;;
32032;SDS011;31720;52.638;9.216;2023-04-15T15:50:53;37.78;;;15.35;;
32032;SDS011;31720;52.638;9.216;2023-04-15T15:53:56;30.10;;;14.70;;
32032;SDS011;31720;52.638;9.216;2023-04-15T15:56:57;29.65;;;14.05;;
32032;SDS011;31720;52.638;9.216;2023-04-15T15:59:58;34.65;;;16.02;;
32032;SDS011;31720;52.638;9.216;2023-04-15T16:03:00;38.25;;;14.68;;
32032;SDS011;31720;52.638;9.216;2023-04-15T16:06:02;34.88;;;14.60;;
32032;SDS011;31720;52.638;9.216;2023-04-15T16:09:05;30.98;;;13.70;;
32032;SDS011;31720;52.638;9.216;2023-04-15T16:12:06;32.42;;;14.93;;
32032;SDS011;31720;52.638;9.216;2023-04-15T16:15:08;33.03;;;14.20;;
32032;SDS011;31720;52.638;9.216;2023-04-15T16:18:10;30.58;;;14.27;;
32032;SDS011;31720;52.638;9.216;2023-04-15T16:21:12;27.48;;;13.07;;
32032;SDS011;31720;52.638;9.216;2023-04-15T16:24:15;29.08;;;14.85;;
32032;SDS011;31720;52.638;9.216;2023-04-15T16:27:16;30.33;;;15.13;;
32032;SDS011;31720;52.638;9.216;2023-04-15T16:30:17;33.25;;;14.05;;
32032;SDS011;31720;52.638;9.216;2023-04-15T16:33:19;30.25;;;14.02;;
32032;SDS011;31720;52.638;9.216;2023-04-15T16:36:21;31.67;;;14.02;;
32032;SDS011;31720;52.638;9.216;2023-04-15T16:39:23;27.75;;;14.10;;
32032;SDS011;31720;52.638;9.216;2023-04-15T16:42:25;34.15;;;14.20;;
32032;SDS011;31720;52.638;9.216;2023-04-15T16:45:26;30.38;;;13.77;;
32032;SDS011;31720;52.638;9.216;2023-04-15T16:48:28;26.25;;;13.93;;
32032;SDS011;31720;52.638;9.216;2023-04-15T16:51:29;32.58;;;14.13;;
32032;SDS011;31720;52.638;9.216;2023-04-15T16:54:33;33.00;;;14.18;;
32032;SDS011;31720;52.638;9.216;2023-04-15T16:57:39;29.20;;;13.68;;
32032;SDS011;31720;52.638;9.216;2023-04-15T17:00:40;36.85;;;15.40;;
32032;SDS011;31720;52.638;9.216;2023-04-15T17:03:42;24.05;;;13.45;;
32032;SDS011;31720;52.638;9.216;2023-04-15T17:06:44;31.13;;;14.30;;
32032;SDS011;31720;52.638;9.216;2023-04-15T17:09:47;31.33;;;14.85;;
32032;SDS011;31720;52.638;9.216;2023-04-15T17:12:49;36.90;;;15.05;;
32032;SDS011;31720;52.638;9.216;2023-04-15T17:15:51;32.40;;;14.65;;
32032;SDS011;31720;52.638;9.216;2023-04-15T17:18:52;37.35;;;15.43;;
32032;SDS011;31720;52.638;9.216;2023-04-15T17:21:54;27.30;;;13.73;;
32032;SDS011;31720;52.638;9.216;2023-04-15T17:24:58;24.50;;;12.38;;
32032;SDS011;31720;52.638;9.216;2023-04-15T17:27:59;28.75;;;13.25;;
32032;SDS011;31720;52.638;9.216;2023-04-15T17:31:01;27.83;;;12.43;;
32032;SDS011;31720;52.638;9.216;2023-04-15T17:34:03;22.95;;;11.38;;
32032;SDS011;31720;52.638;9.216;2023-04-15T17:37:04;21.70;;;11.63;;
32032;SDS011;31720;52.638;9.216;2023-04-15T17:40:08;25.95;;;12.65;;
32032;SDS011;31720;52.638;9.216;2023-04-15T17:43:10;25.58;;;11.48;;
32032;SDS011;31720;52.638;9.216;2023-04-15T17:46:12;25.42;;;10.88;;
32032;SDS011;31720;52.638;9.216;2023-04-15T17:49:13;23.38;;;10.90;;
32032;SDS011;31720;52.638;9.216;2023-04-15T17:52:15;20.73;;;9.90;;
32032;SDS011;31720;52.638;9.216;2023-04-15T17:55:18;20.75;;;10.55;;
32032;SDS011;31720;52.638;9.216;2023-04-15T17:58:21;20.08;;;9.98;;
32032;SDS011;31720;52.638;9.216;2023-04-15T18:01:22;18.27;;;9.57;;
32032;SDS011;31720;52.638;9.216;2023-04-15T18:04:24;23.30;;;10.07;;